createdAt,value
2019-02-07T00:01:32.754Z,3.60
2019-02-07T00:04:03.503Z,3.60
2019-02-07T00:06:34.134Z,3.70
2019-02-07T00:09:08.582Z,3.80
2019-02-07T00:11:41.983Z,3.80
2019-02-07T00:14:12.527Z,3.80
2019-02-07T00:16:43.058Z,3.80
2019-02-07T00:19:13.640Z,3.80
2019-02-07T00:21:44.161Z,3.80
2019-02-07T00:24:14.697Z,3.90
2019-02-07T00:26:45.441Z,3.80
2019-02-07T00:29:15.951Z,3.80
2019-02-07T00:31:46.504Z,3.80
2019-02-07T00:34:17.022Z,3.80
2019-02-07T00:36:47.571Z,3.80
2019-02-07T00:39:18.389Z,3.70
2019-02-07T00:41:48.920Z,3.70
2019-02-07T00:44:19.491Z,3.70
2019-02-07T00:46:49.991Z,3.70
2019-02-07T00:49:20.526Z,3.70
2019-02-07T00:51:51.136Z,3.70
2019-02-07T00:54:21.767Z,3.80
2019-02-07T00:56:52.315Z,3.80
2019-02-07T00:59:22.855Z,3.90
2019-02-07T01:01:53.395Z,4.00
2019-02-07T01:04:23.915Z,4.10
2019-02-07T01:06:55.195Z,4.10
2019-02-07T01:09:25.735Z,4.00
2019-02-07T01:11:56.249Z,4.00
2019-02-07T01:14:29.769Z,3.90
2019-02-07T01:17:00.327Z,4.00
2019-02-07T01:19:31.134Z,4.00
2019-02-07T01:22:01.699Z,4.00
2019-02-07T01:24:32.217Z,4.10
2019-02-07T01:27:02.744Z,4.10
2019-02-07T01:29:33.311Z,4.20
2019-02-07T01:32:04.118Z,4.20
2019-02-07T01:34:34.697Z,4.20
2019-02-07T01:37:05.413Z,4.20
2019-02-07T01:39:36.020Z,4.20
2019-02-07T01:42:06.571Z,4.20
2019-02-07T01:44:37.402Z,4.30
2019-02-07T01:47:08.245Z,4.30
2019-02-07T01:49:38.763Z,4.20
2019-02-07T01:52:09.305Z,4.30
2019-02-07T01:54:40.868Z,4.30
2019-02-07T01:57:11.713Z,4.30
2019-02-07T01:59:43.128Z,4.40
2019-02-07T02:02:13.688Z,4.40
2019-02-07T02:04:44.835Z,4.40
2019-02-07T02:07:15.571Z,4.40
2019-02-07T02:09:46.506Z,4.40
2019-02-07T02:12:17.403Z,4.40
2019-02-07T02:14:48.564Z,4.40
2019-02-07T02:17:19.872Z,4.40
2019-02-07T02:19:51.075Z,4.40
2019-02-07T02:22:21.603Z,4.50
2019-02-07T02:24:52.706Z,4.50
2019-02-07T02:27:23.891Z,4.50
2019-02-07T02:29:54.923Z,4.60
2019-02-07T02:32:25.455Z,4.60
2019-02-07T02:34:56.771Z,4.70
2019-02-07T02:37:27.870Z,4.60
2019-02-07T02:39:59.450Z,4.70
2019-02-07T02:42:30.236Z,4.70
2019-02-07T02:45:01.262Z,4.60
2019-02-07T02:47:31.895Z,4.60
2019-02-07T02:50:03.585Z,4.60
2019-02-07T02:52:34.555Z,4.60
2019-02-07T02:55:06.738Z,4.60
2019-02-07T02:57:37.280Z,4.70
2019-02-07T03:00:16.045Z,4.70
2019-02-07T03:03:11.883Z,4.70
2019-02-07T03:06:11.445Z,4.70
2019-02-07T03:09:10.159Z,4.50
2019-02-07T03:11:51.987Z,4.50
2019-02-07T03:14:53.885Z,4.50
2019-02-07T03:17:53.891Z,4.50
2019-02-07T03:20:49.679Z,4.40
2019-02-07T03:23:42.512Z,4.40
2019-02-07T03:26:31.471Z,4.30
2019-02-07T03:29:22.327Z,4.30
2019-02-07T03:32:09.538Z,4.30
2019-02-07T03:34:53.215Z,4.30
2019-02-07T03:37:57.763Z,4.40
2019-02-07T03:40:47.235Z,4.50
2019-02-07T03:43:39.059Z,4.50
2019-02-07T03:46:18.599Z,4.60
2019-02-07T03:49:02.795Z,4.60
2019-02-07T03:51:52.076Z,4.70
2019-02-07T03:54:40.574Z,4.70
2019-02-07T03:57:28.656Z,4.70
2019-02-07T04:00:17.639Z,4.80
2019-02-07T04:03:00.672Z,4.80
2019-02-07T04:06:02.190Z,4.80
2019-02-07T04:08:50.104Z,4.80
2019-02-07T04:11:45.652Z,4.90
2019-02-07T04:14:34.750Z,5.00
2019-02-07T04:17:35.864Z,5.00
2019-02-07T04:20:24.282Z,5.00
2019-02-07T04:23:17.663Z,5.00
2019-02-07T04:26:15.913Z,4.90
2019-02-07T04:28:52.290Z,4.90
2019-02-07T04:31:47.664Z,4.70
2019-02-07T04:34:35.634Z,4.60
2019-02-07T04:37:25.547Z,4.50
2019-02-07T04:40:04.662Z,4.60
2019-02-07T04:42:48.995Z,4.60
2019-02-07T04:45:44.498Z,4.60
2019-02-07T04:48:37.035Z,4.60
2019-02-07T04:51:29.524Z,4.70
2019-02-07T04:54:18.969Z,4.70
2019-02-07T04:57:06.676Z,4.70
2019-02-07T04:59:59.650Z,4.70
2019-02-07T05:02:55.167Z,4.70
2019-02-07T05:05:43.163Z,4.70
2019-02-07T05:08:35.632Z,4.70
2019-02-07T05:11:25.747Z,4.80
2019-02-07T05:14:13.772Z,4.70
2019-02-07T05:17:01.219Z,4.80
2019-02-07T05:19:50.980Z,4.90
2019-02-07T05:22:49.316Z,4.90
2019-02-07T05:25:37.675Z,5.00
2019-02-07T05:28:24.015Z,5.00
2019-02-07T05:31:08.509Z,5.00
2019-02-07T05:33:53.244Z,5.00
2019-02-07T05:36:42.216Z,5.10
2019-02-07T05:39:20.890Z,5.10
2019-02-07T05:42:03.292Z,5.10
2019-02-07T05:44:51.375Z,5.10
2019-02-07T05:47:41.385Z,5.20
2019-02-07T05:50:24.562Z,5.20
2019-02-07T05:53:32.423Z,5.20
2019-02-07T05:56:22.012Z,5.10
2019-02-07T05:59:26.382Z,5.10
2019-02-07T06:02:08.476Z,5.10
2019-02-07T06:05:10.374Z,5.10
2019-02-07T06:08:06.073Z,5.10
2019-02-07T06:10:48.239Z,5.10
2019-02-07T06:13:31.964Z,5.10
2019-02-07T06:16:33.352Z,5.00
2019-02-07T06:19:28.946Z,4.90
2019-02-07T06:22:16.394Z,4.80
2019-02-07T06:25:17.779Z,4.70
2019-02-07T06:28:07.324Z,4.60
2019-02-07T06:31:05.953Z,4.50
2019-02-07T06:34:10.290Z,4.50
2019-02-07T06:37:00.052Z,4.40
2019-02-07T06:39:54.955Z,4.40
2019-02-07T06:42:56.508Z,4.40
2019-02-07T06:45:35.553Z,4.40
2019-02-07T06:48:23.761Z,4.40
2019-02-07T06:51:16.001Z,4.40
2019-02-07T06:54:04.079Z,4.30
2019-02-07T06:56:56.298Z,4.40
2019-02-07T06:59:52.102Z,4.40
2019-02-07T07:02:47.724Z,4.40
2019-02-07T07:05:40.304Z,4.40
2019-02-07T07:08:22.957Z,4.40
2019-02-07T07:11:13.095Z,4.40
2019-02-07T07:14:08.355Z,4.50
2019-02-07T07:17:05.037Z,4.60
2019-02-07T07:20:00.347Z,4.60
2019-02-07T07:22:52.606Z,4.70
2019-02-07T07:25:42.048Z,4.70
2019-02-07T07:28:34.416Z,4.70
2019-02-07T07:31:22.141Z,4.70
2019-02-07T07:34:07.426Z,4.80
2019-02-07T07:36:55.325Z,4.80
2019-02-07T07:39:43.186Z,4.80
2019-02-07T07:42:50.653Z,4.80
2019-02-07T07:45:51.859Z,4.70
2019-02-07T07:48:50.309Z,4.60
2019-02-07T07:51:38.468Z,4.50
2019-02-07T07:54:26.350Z,4.50
2019-02-07T07:57:15.851Z,4.50
2019-02-07T08:00:03.960Z,4.50
2019-02-07T08:03:02.370Z,4.40
2019-02-07T08:05:49.615Z,4.40
2019-02-07T08:08:36.079Z,4.40
2019-02-07T08:11:21.288Z,4.30
2019-02-07T08:14:22.807Z,4.10
2019-02-07T08:17:21.419Z,4.10
2019-02-07T08:20:11.394Z,4.20
2019-02-07T08:23:02.598Z,4.10
2019-02-07T08:25:54.911Z,4.10
2019-02-07T08:29:02.536Z,4.00
2019-02-07T08:31:46.507Z,4.10
2019-02-07T08:34:34.740Z,4.20
2019-02-07T08:37:18.871Z,4.20
2019-02-07T08:40:07.908Z,4.20
2019-02-07T08:42:57.939Z,4.10
2019-02-07T08:45:50.151Z,4.10
2019-02-07T08:48:28.295Z,4.00
2019-02-07T08:51:13.078Z,4.00
2019-02-07T08:54:14.743Z,3.90
2019-02-07T08:57:19.771Z,3.90
2019-02-07T09:00:04.636Z,4.00
2019-02-07T09:02:54.079Z,4.00
2019-02-07T09:05:49.411Z,4.10
2019-02-07T09:08:50.550Z,4.10
2019-02-07T09:11:46.656Z,4.20
2019-02-07T09:14:36.789Z,4.20
2019-02-07T09:17:26.220Z,4.20
2019-02-07T09:20:17.129Z,4.30
2019-02-07T09:23:01.657Z,4.30
2019-02-07T09:25:41.556Z,4.30
2019-02-07T09:28:19.040Z,4.20
2019-02-07T09:31:08.587Z,4.10
2019-02-07T09:33:59.482Z,4.00
2019-02-07T09:36:47.982Z,4.00
2019-02-07T09:39:36.271Z,4.00
2019-02-07T09:42:40.633Z,4.00
2019-02-07T09:45:33.130Z,4.00
2019-02-07T09:48:22.044Z,3.90
2019-02-07T09:51:17.661Z,3.90
2019-02-07T09:54:05.713Z,3.90
2019-02-07T09:56:48.649Z,3.90
2019-02-07T09:59:38.130Z,3.80
2019-02-07T10:02:23.773Z,3.80
2019-02-07T10:05:25.183Z,3.80
2019-02-07T10:08:03.891Z,3.90
2019-02-07T10:10:46.761Z,3.90
2019-02-07T10:13:36.511Z,3.90
2019-02-07T10:16:34.831Z,4.00
2019-02-07T10:19:22.900Z,4.00
2019-02-07T10:22:13.144Z,4.10
2019-02-07T10:24:59.523Z,4.20
2019-02-07T10:27:40.427Z,4.20
2019-02-07T10:30:31.491Z,4.30
2019-02-07T10:33:36.193Z,4.20
2019-02-07T10:36:23.303Z,4.20
2019-02-07T10:39:31.412Z,4.20
2019-02-07T10:42:19.576Z,4.20
2019-02-07T10:45:12.959Z,4.20
2019-02-07T10:48:18.070Z,4.20
2019-02-07T10:51:06.072Z,4.20
2019-02-07T10:53:53.940Z,4.20
2019-02-07T10:56:45.045Z,4.10
2019-02-07T10:59:30.655Z,4.10
2019-02-07T11:02:18.814Z,4.10
2019-02-07T11:05:23.367Z,4.10
2019-02-07T11:08:18.919Z,4.10
2019-02-07T11:11:05.396Z,4.10
2019-02-07T11:13:53.285Z,4.20
2019-02-07T11:16:52.066Z,4.30
2019-02-07T11:19:47.694Z,4.20
2019-02-07T11:22:40.002Z,4.20
2019-02-07T11:25:36.199Z,4.20
2019-02-07T11:28:17.407Z,4.30
2019-02-07T11:30:59.646Z,4.30
2019-02-07T11:33:41.235Z,4.20
2019-02-07T11:36:32.113Z,4.20
2019-02-07T11:39:40.120Z,4.20
2019-02-07T11:42:28.308Z,4.20
2019-02-07T11:45:20.879Z,4.20
2019-02-07T11:48:19.206Z,4.10
2019-02-07T11:51:06.854Z,4.20
2019-02-07T11:53:47.343Z,4.10
2019-02-07T11:56:28.094Z,4.10
2019-02-07T11:59:09.441Z,4.10
2019-02-07T12:02:14.566Z,4.00
2019-02-07T12:05:02.376Z,4.00
2019-02-07T12:07:42.770Z,4.10
2019-02-07T12:10:49.641Z,4.00
2019-02-07T12:13:37.815Z,4.00
2019-02-07T12:16:36.123Z,4.00
2019-02-07T12:19:28.445Z,4.00
2019-02-07T12:22:09.063Z,4.10
2019-02-07T12:24:58.535Z,4.10
2019-02-07T12:28:01.504Z,4.10
2019-02-07T12:30:51.075Z,4.10
2019-02-07T12:33:38.931Z,4.20
2019-02-07T12:36:46.415Z,4.10
2019-02-07T12:39:34.538Z,4.00
2019-02-07T12:42:24.242Z,3.90
2019-02-07T12:45:09.921Z,4.00
2019-02-07T12:47:59.382Z,3.90
2019-02-07T12:50:48.850Z,3.80
2019-02-07T12:53:47.103Z,3.80
2019-02-07T12:56:36.859Z,3.80
2019-02-07T12:59:26.335Z,3.80
2019-02-07T13:02:28.095Z,3.70
2019-02-07T13:05:17.567Z,3.80
2019-02-07T13:08:10.205Z,3.90
2019-02-07T13:10:58.132Z,3.80
2019-02-07T13:14:02.849Z,3.80
2019-02-07T13:16:50.958Z,3.70
2019-02-07T13:19:49.226Z,3.70
2019-02-07T13:22:52.074Z,3.80
2019-02-07T13:25:53.477Z,3.80
2019-02-07T13:28:33.683Z,3.80
2019-02-07T13:31:35.345Z,3.70
2019-02-07T13:34:24.180Z,3.80
2019-02-07T13:37:06.214Z,3.70
2019-02-07T13:39:54.332Z,3.70
2019-02-07T13:42:38.431Z,3.80
2019-02-07T13:45:45.767Z,3.80
2019-02-07T13:48:35.220Z,3.80
2019-02-07T13:51:33.603Z,3.90
2019-02-07T13:54:25.935Z,3.90
2019-02-07T13:57:33.491Z,3.90
2019-02-07T14:00:30.272Z,3.90
2019-02-07T14:03:34.407Z,3.90
2019-02-07T14:06:22.748Z,3.80
2019-02-07T14:09:15.019Z,3.70
2019-02-07T14:12:08.355Z,3.80
2019-02-07T14:14:58.309Z,3.80
2019-02-07T14:18:00.341Z,3.70
2019-02-07T14:20:49.815Z,3.70
2019-02-07T14:23:34.670Z,3.70
2019-02-07T14:26:22.114Z,3.70
2019-02-07T14:29:23.728Z,3.60
2019-02-07T14:32:13.236Z,3.60
2019-02-07T14:35:01.597Z,3.60
2019-02-07T14:37:51.862Z,3.70
2019-02-07T14:40:44.459Z,3.60
2019-02-07T14:43:42.820Z,3.70
2019-02-07T14:46:31.137Z,3.70
2019-02-07T14:49:01.673Z,3.70
2019-02-07T14:51:32.212Z,3.60
2019-02-07T14:54:02.836Z,3.60
2019-02-07T14:56:33.657Z,3.60
2019-02-07T14:59:05.935Z,3.70
2019-02-07T15:01:36.490Z,3.60
2019-02-07T15:04:07.231Z,3.60
2019-02-07T15:06:37.872Z,3.60
2019-02-07T15:09:16.625Z,3.60
2019-02-07T15:11:47.204Z,3.50
2019-02-07T15:14:17.692Z,3.40
2019-02-07T15:16:48.296Z,3.40
2019-02-07T15:19:18.835Z,3.40
2019-02-07T15:21:49.652Z,3.40
2019-02-07T15:24:20.191Z,3.30
2019-02-07T15:26:50.691Z,3.30
2019-02-07T15:29:21.228Z,3.20
2019-02-07T15:31:51.762Z,3.10
2019-02-07T15:34:22.271Z,3.10
2019-02-07T15:36:54.048Z,3.00
2019-02-07T15:39:24.574Z,2.90
2019-02-07T15:41:55.089Z,2.90
2019-02-07T15:44:25.670Z,2.90
2019-02-07T15:46:56.182Z,2.80
2019-02-07T15:49:27.080Z,2.90
2019-02-07T15:51:57.599Z,2.90
2019-02-07T15:54:28.498Z,2.80
2019-02-07T15:56:59.025Z,2.80
2019-02-07T15:59:51.636Z,2.80
2019-02-07T16:02:44.279Z,2.80
2019-02-07T16:05:15.375Z,2.90
2019-02-07T16:07:45.895Z,2.80
2019-02-07T16:10:18.263Z,2.80
2019-02-07T16:12:49.372Z,2.80
2019-02-07T16:15:19.934Z,2.70
2019-02-07T16:17:50.533Z,2.70
2019-02-07T16:20:21.097Z,2.70
2019-02-07T16:22:51.519Z,2.60
2019-02-07T16:25:22.398Z,2.50
2019-02-07T16:27:52.939Z,2.50
2019-02-07T16:30:23.644Z,2.50
2019-02-07T16:32:54.122Z,2.50
2019-02-07T16:35:24.672Z,2.60
2019-02-07T16:37:55.470Z,2.50
2019-02-07T16:40:26.197Z,2.50
2019-02-07T16:42:56.831Z,2.50
2019-02-07T16:45:27.549Z,2.50
2019-02-07T16:47:58.103Z,2.50
2019-02-07T16:50:28.707Z,2.50
2019-02-07T16:53:01.482Z,2.50
2019-02-07T16:55:31.688Z,2.40
2019-02-07T16:58:02.242Z,2.30
2019-02-07T17:00:33.019Z,2.40
2019-02-07T17:03:03.668Z,2.40
2019-02-07T17:05:34.206Z,2.40
2019-02-07T17:08:06.535Z,2.40
2019-02-07T17:10:37.575Z,2.40
2019-02-07T17:13:08.795Z,2.50
2019-02-07T17:15:39.768Z,2.50
2019-02-07T17:18:10.263Z,2.40
2019-02-07T17:20:40.958Z,2.40
2019-02-07T17:23:11.552Z,2.40
2019-02-07T17:25:42.975Z,2.40
2019-02-07T17:28:13.764Z,2.50
2019-02-07T17:30:44.351Z,2.50
2019-02-07T17:33:15.049Z,2.60
2019-02-07T17:35:45.536Z,2.60
2019-02-07T17:38:16.027Z,2.60
2019-02-07T17:40:46.552Z,2.60
2019-02-07T17:43:17.012Z,2.60
2019-02-07T17:45:47.537Z,2.60
2019-02-07T17:48:18.359Z,2.60
2019-02-07T17:50:48.886Z,2.60
2019-02-07T17:53:19.764Z,2.60
2019-02-07T17:55:50.672Z,2.60
2019-02-07T17:58:21.205Z,2.60
2019-02-07T18:01:05.139Z,2.60
2019-02-07T18:03:35.954Z,2.70
2019-02-07T18:06:08.367Z,2.60
2019-02-07T18:08:38.876Z,2.70
2019-02-07T18:11:11.342Z,2.70
2019-02-07T18:13:41.892Z,2.80
2019-02-07T18:16:12.508Z,2.70
2019-02-07T18:18:43.710Z,2.80
2019-02-07T18:21:14.323Z,2.90
2019-02-07T18:23:44.819Z,2.80
2019-02-07T18:26:15.790Z,2.80
2019-02-07T18:28:46.323Z,2.90
2019-02-07T18:31:16.942Z,2.90
2019-02-07T18:33:47.436Z,2.90
2019-02-07T18:36:17.923Z,2.90
2019-02-07T18:38:48.459Z,3.00
2019-02-07T18:41:19.047Z,3.00
2019-02-07T18:43:49.606Z,3.00
2019-02-07T18:46:20.102Z,3.00
2019-02-07T18:48:50.907Z,3.00
2019-02-07T18:51:21.423Z,3.00
2019-02-07T18:53:52.163Z,3.00
2019-02-07T18:56:22.737Z,3.00
2019-02-07T18:58:53.264Z,3.00
2019-02-07T19:01:23.844Z,3.00
2019-02-07T19:03:54.448Z,3.00
2019-02-07T19:06:24.995Z,3.00
2019-02-07T19:08:55.539Z,3.00
2019-02-07T19:11:26.107Z,3.10
2019-02-07T19:13:56.647Z,3.10
2019-02-07T19:16:27.510Z,3.10
2019-02-07T19:18:58.034Z,3.20
2019-02-07T19:21:30.331Z,3.20
2019-02-07T19:24:01.130Z,3.20
2019-02-07T19:26:31.968Z,3.30
2019-02-07T19:29:02.480Z,3.20
2019-02-07T19:31:32.994Z,3.30
2019-02-07T19:34:03.534Z,3.30
2019-02-07T19:36:34.176Z,3.20
2019-02-07T19:39:08.279Z,3.20
2019-02-07T19:41:38.795Z,3.20
2019-02-07T19:44:09.915Z,3.10
2019-02-07T19:46:40.412Z,3.20
2019-02-07T19:49:14.023Z,3.10
2019-02-07T19:51:47.991Z,3.10
2019-02-07T19:54:18.528Z,3.10
2019-02-07T19:56:49.407Z,3.10
2019-02-07T19:59:20.084Z,3.10
2019-02-07T20:01:50.860Z,3.20
2019-02-07T20:04:21.429Z,3.20
2019-02-07T20:06:52.335Z,3.20
2019-02-07T20:09:23.964Z,3.30
2019-02-07T20:11:54.555Z,3.30
2019-02-07T20:14:25.104Z,3.40
2019-02-07T20:16:55.635Z,3.50
2019-02-07T20:19:26.225Z,3.40
2019-02-07T20:21:56.751Z,3.40
2019-02-07T20:24:27.284Z,3.50
2019-02-07T20:26:57.787Z,3.60
2019-02-07T20:29:28.334Z,3.50
2019-02-07T20:31:58.863Z,3.50
2019-02-07T20:34:29.859Z,3.40
2019-02-07T20:37:00.879Z,3.40
2019-02-07T20:39:31.607Z,3.40
2019-02-07T20:42:02.133Z,3.40
2019-02-07T20:44:32.674Z,3.40
2019-02-07T20:47:03.203Z,3.40
2019-02-07T20:49:33.765Z,3.40
2019-02-07T20:52:04.387Z,3.30
2019-02-07T20:54:35.446Z,3.30
2019-02-07T20:57:05.955Z,3.30
2019-02-07T20:59:36.518Z,3.30
2019-02-07T21:02:07.068Z,3.30
2019-02-07T21:04:37.917Z,3.30
2019-02-07T21:07:08.461Z,3.30
2019-02-07T21:09:39.354Z,3.20
2019-02-07T21:12:09.866Z,3.20
2019-02-07T21:14:40.403Z,3.20
2019-02-07T21:17:10.973Z,3.20
2019-02-07T21:19:45.612Z,3.20
2019-02-07T21:22:16.184Z,3.10
2019-02-07T21:24:46.823Z,3.10
2019-02-07T21:27:17.365Z,3.10
2019-02-07T21:29:47.890Z,3.00
2019-02-07T21:32:18.428Z,3.10
2019-02-07T21:34:49.014Z,3.10
2019-02-07T21:37:19.567Z,3.20
2019-02-07T21:39:50.632Z,3.20
2019-02-07T21:42:21.132Z,3.20
2019-02-07T21:44:51.646Z,3.20
2019-02-07T21:47:22.166Z,3.20
2019-02-07T21:49:52.695Z,3.20
2019-02-07T21:52:23.220Z,3.20
2019-02-07T21:54:53.830Z,3.20
2019-02-07T21:57:24.580Z,3.20
2019-02-07T22:00:00.696Z,3.20
2019-02-07T22:02:27.660Z,3.20
2019-02-07T22:04:58.177Z,3.20
2019-02-07T22:07:29.013Z,3.20
2019-02-07T22:09:59.539Z,3.30
2019-02-07T22:12:30.053Z,3.30
2019-02-07T22:15:00.623Z,3.30
2019-02-07T22:17:31.143Z,3.30
2019-02-07T22:20:01.696Z,3.40
2019-02-07T22:22:32.227Z,3.30
2019-02-07T22:25:02.742Z,3.30
2019-02-07T22:27:33.283Z,3.30
2019-02-07T22:30:05.311Z,3.30
2019-02-07T22:32:36.007Z,3.30
2019-02-07T22:35:07.307Z,3.30
2019-02-07T22:37:37.835Z,3.40
2019-02-07T22:40:11.341Z,3.40
2019-02-07T22:42:47.820Z,3.50
2019-02-07T22:45:15.445Z,3.50
2019-02-07T22:47:46.155Z,3.50
2019-02-07T22:50:21.422Z,3.50
2019-02-07T22:52:57.095Z,3.50
2019-02-07T22:55:24.750Z,3.50
2019-02-07T22:57:55.272Z,3.50
2019-02-07T23:01:09.522Z,3.50
2019-02-07T23:03:48.155Z,3.60
2019-02-07T23:06:19.319Z,3.70
2019-02-07T23:08:50.189Z,3.70
2019-02-07T23:11:21.088Z,3.70
2019-02-07T23:13:51.982Z,3.70
2019-02-07T23:16:22.709Z,3.70
2019-02-07T23:18:54.934Z,3.70
2019-02-07T23:21:25.546Z,3.70
2019-02-07T23:23:56.056Z,3.70
2019-02-07T23:26:26.582Z,3.70
2019-02-07T23:28:57.202Z,3.70
2019-02-07T23:31:28.068Z,3.70
2019-02-07T23:33:58.574Z,3.70
2019-02-07T23:36:29.095Z,3.70
2019-02-07T23:38:59.703Z,3.80
2019-02-07T23:41:30.219Z,3.80
2019-02-07T23:44:01.170Z,3.80
2019-02-07T23:46:31.711Z,3.80
2019-02-07T23:49:02.191Z,3.80
2019-02-07T23:51:32.704Z,3.90
2019-02-07T23:54:03.281Z,3.90
2019-02-07T23:56:33.880Z,3.90
2019-02-07T23:59:04.586Z,3.90
